Time;durP1;ratioP1;P1;durP2;ratioP2;P2;SDS_P1;SDS_P2;PMS_P1;PMS_P2;Temp;Humidity;BMP_temperature;BMP_pressure;BME280_temperature;BME280_humidity;BME280_pressure;Samples;Min_cycle;Max_cycle;Signal;HPM_P1;HPM_P2
2023/06/01 00:02:21;;;;;;;1.85;1.67;;;;;;;;;;5050574;28;20208;-80
2023/06/01 00:04:49;;;;;;;1.63;1.52;;;;;;;;;;5054070;28;20200;-79
2023/06/01 00:07:17;;;;;;;2.45;1.60;;;;;;;;;;5053657;28;20686;-80
2023/06/01 00:09:44;;;;;;;1.63;1.50;;;;;;;;;;5061956;28;20217;-81
2023/06/01 00:12:12;;;;;;;1.70;1.60;;;;;;;;;;5086359;22;20233;-82
2023/06/01 00:14:41;;;;;;;2.05;1.60;;;;;;;;;;5073887;28;20204;-81
2023/06/01 00:17:09;;;;;;;1.48;1.33;;;;;;;;;;5074890;28;20705;-81
2023/06/01 00:19:38;;;;;;;4.20;1.60;;;;;;;;;;5074459;28;20201;-81
2023/06/01 00:22:07;;;;;;;3.03;2.17;;;;;;;;;;5066988;28;20762;-81
2023/06/01 00:24:35;;;;;;;3.33;1.90;;;;;;;;;;5073372;28;20201;-81
2023/06/01 00:27:02;;;;;;;2.67;1.60;;;;;;;;;;5072811;28;20331;-81
2023/06/01 00:29:30;;;;;;;2.63;1.52;;;;;;;;;;5074655;28;20252;-81
2023/06/01 00:31:59;;;;;;;3.13;1.80;;;;;;;;;;5073173;28;20199;-81
2023/06/01 00:34:26;;;;;;;4.60;2.35;;;;;;;;;;5073940;28;20236;-81
2023/06/01 00:36:54;;;;;;;2.20;1.80;;;;;;;;;;5072899;28;20232;-81
2023/06/01 00:39:21;;;;;;;1.67;1.45;;;;;;;;;;5073778;28;20196;-82
2023/06/01 00:41:49;;;;;;;1.52;1.42;;;;;;;;;;5073982;28;20193;-82
2023/06/01 00:44:16;;;;;;;1.73;1.63;;;;;;;;;;5074304;28;20601;-81
2023/06/01 00:46:44;;;;;;;4.00;2.22;;;;;;;;;;5054377;28;20208;-81
2023/06/01 00:49:12;;;;;;;2.05;1.80;;;;;;;;;;5066478;28;20308;-81
2023/06/01 00:51:40;;;;;;;1.48;1.38;;;;;;;;;;5067297;28;20301;-81
2023/06/01 00:54:08;;;;;;;2.22;1.67;;;;;;;;;;5073815;28;20217;-81
2023/06/01 00:56:36;;;;;;;1.80;1.70;;;;;;;;;;5073702;28;20276;-82
2023/06/01 00:59:03;;;;;;;1.52;1.42;;;;;;;;;;5073105;28;20204;-82
2023/06/01 01:01:31;;;;;;;2.22;1.90;;;;;;;;;;5068864;28;20197;-82
2023/06/01 01:04:00;;;;;;;2.13;1.90;;;;;;;;;;5073628;28;20282;-82
2023/06/01 01:06:41;;;;;;;2.15;1.90;;;;;;;;;;5073263;28;20233;-82
2023/06/01 01:09:25;;;;;;;1.73;1.48;;;;;;;;;;5073494;28;20209;-82
2023/06/01 01:11:58;;;;;;;1.95;1.77;;;;;;;;;;5073258;28;20205;-82
2023/06/01 01:14:41;;;;;;;1.70;1.60;;;;;;;;;;5062937;28;20186;-82
2023/06/01 01:17:16;;;;;;;1.92;1.48;;;;;;;;;;5065108;28;20197;-81
2023/06/01 01:19:54;;;;;;;4.35;1.50;;;;;;;;;;5073847;28;20272;-81
2023/06/01 01:22:58;;;;;;;2.05;1.60;;;;;;;;;;5067465;28;20217;-81
2023/06/01 01:25:55;;;;;;;3.70;1.80;;;;;;;;;;5053586;28;20203;-81
2023/06/01 01:28:34;;;;;;;7.75;2.42;;;;;;;;;;5071131;28;20189;-81
2023/06/01 01:31:04;;;;;;;4.18;1.60;;;;;;;;;;5072589;28;20205;-81
2023/06/01 01:33:33;;;;;;;2.45;2.03;;;;;;;;;;5072799;28;20220;-80
2023/06/01 01:36:02;;;;;;;3.47;2.33;;;;;;;;;;5073031;28;20224;-81
2023/06/01 01:38:29;;;;;;;1.60;1.35;;;;;;;;;;5073132;28;20200;-81
2023/06/01 01:40:57;;;;;;;2.95;2.00;;;;;;;;;;5072773;28;20284;-81
2023/06/01 01:43:24;;;;;;;2.22;1.90;;;;;;;;;;5067037;28;20276;-81
2023/06/01 01:45:58;;;;;;;2.40;1.83;;;;;;;;;;5072440;28;20233;-80
2023/06/01 01:48:33;;;;;;;1.85;1.63;;;;;;;;;;5072572;28;20185;-81
2023/06/01 01:51:07;;;;;;;1.90;1.50;;;;;;;;;;5072523;28;20201;-81
2023/06/01 01:53:35;;;;;;;1.50;1.40;;;;;;;;;;5071873;28;20811;-81
2023/06/01 01:56:03;;;;;;;1.98;1.65;;;;;;;;;;5065502;28;20569;-81
2023/06/01 01:58:31;;;;;;;1.70;1.60;;;;;;;;;;5072225;28;20193;-81
2023/06/01 02:01:00;;;;;;;2.38;1.70;;;;;;;;;;5071008;28;20251;-81
2023/06/01 02:03:28;;;;;;;2.70;2.00;;;;;;;;;;5072264;28;20213;-81
2023/06/01 02:05:55;;;;;;;1.85;1.60;;;;;;;;;;5072410;28;20284;-82
2023/06/01 02:08:23;;;;;;;1.80;1.50;;;;;;;;;;5066632;28;20625;-81
2023/06/01 02:10:50;;;;;;;1.70;1.60;;;;;;;;;;5057382;28;20311;-81
2023/06/01 02:13:18;;;;;;;2.38;2.17;;;;;;;;;;5071300;28;20601;-81
2023/06/01 02:15:45;;;;;;;4.18;1.92;;;;;;;;;;5072661;28;20215;-82
2023/06/01 02:18:17;;;;;;;2.90;1.90;;;;;;;;;;5071752;28;20205;-80
2023/06/01 02:20:45;;;;;;;2.60;1.83;;;;;;;;;;5062723;28;20208;-80
2023/06/01 02:23:13;;;;;;;1.80;1.70;;;;;;;;;;5071844;28;20239;-80
2023/06/01 02:25:40;;;;;;;3.28;2.30;;;;;;;;;;5072418;28;20637;-80
2023/06/01 02:28:10;;;;;;;2.05;1.77;;;;;;;;;;5071724;28;20201;-81
2023/06/01 02:30:38;;;;;;;2.30;1.80;;;;;;;;;;5052695;28;20355;-82
2023/06/01 02:33:05;;;;;;;2.15;1.95;;;;;;;;;;5059443;28;20310;-81
2023/06/01 02:35:34;;;;;;;2.40;2.10;;;;;;;;;;5072094;28;20283;-81
2023/06/01 02:38:01;;;;;;;3.28;1.80;;;;;;;;;;5070873;28;20285;-80
2023/06/01 02:40:29;;;;;;;3.22;1.90;;;;;;;;;;5072203;28;20292;-81
2023/06/01 02:42:56;;;;;;;2.28;1.85;;;;;;;;;;5071138;28;20221;-81
2023/06/01 02:45:24;;;;;;;1.98;1.88;;;;;;;;;;5072005;28;20235;-81
2023/06/01 02:47:51;;;;;;;3.15;2.10;;;;;;;;;;5071860;28;20205;-80
2023/06/01 02:50:19;;;;;;;4.55;2.35;;;;;;;;;;5072158;28;20303;-80
2023/06/01 02:55:21;;;;;;;2.50;2.15;;;;;;;;;;5055942;28;20625;-78
2023/06/01 02:57:49;;;;;;;3.03;2.60;;;;;;;;;;5048639;28;20274;-78
2023/06/01 03:00:17;;;;;;;3.22;2.78;;;;;;;;;;5052198;28;20198;-77
2023/06/01 03:02:44;;;;;;;4.07;2.65;;;;;;;;;;5043047;28;20490;-79
2023/06/01 03:05:14;;;;;;;4.72;3.00;;;;;;;;;;5052144;28;20208;-80
2023/06/01 03:07:42;;;;;;;4.25;3.60;;;;;;;;;;5047298;28;20225;-80
2023/06/01 03:10:10;;;;;;;3.75;3.45;;;;;;;;;;5047231;28;20219;-79
2023/06/01 03:12:38;;;;;;;3.88;3.53;;;;;;;;;;5050506;28;20290;-79
2023/06/01 03:15:07;;;;;;;4.30;3.47;;;;;;;;;;5051602;28;20226;-78
2023/06/01 03:17:35;;;;;;;6.03;4.80;;;;;;;;;;5048157;28;20213;-79
2023/06/01 03:20:04;;;;;;;5.60;3.78;;;;;;;;;;5052708;28;20288;-78
2023/06/01 03:22:31;;;;;;;4.65;4.25;;;;;;;;;;5052831;28;20217;-80
2023/06/01 03:25:00;;;;;;;8.45;3.58;;;;;;;;;;5055021;28;20190;-78
2023/06/01 03:27:27;;;;;;;3.60;3.30;;;;;;;;;;5053519;28;20583;-78
2023/06/01 03:29:56;;;;;;;4.32;3.60;;;;;;;;;;5055073;28;20198;-78
2023/06/01 03:32:23;;;;;;;3.75;3.38;;;;;;;;;;5054236;28;20226;-78
2023/06/01 03:34:51;;;;;;;4.55;3.72;;;;;;;;;;5054932;28;20208;-77
2023/06/01 03:37:19;;;;;;;4.03;3.40;;;;;;;;;;5051861;28;20198;-79
2023/06/01 03:39:47;;;;;;;7.38;4.43;;;;;;;;;;5050535;28;20202;-79
2023/06/01 03:42:14;;;;;;;4.68;3.67;;;;;;;;;;5053433;28;20237;-78
2023/06/01 03:44:42;;;;;;;5.50;4.35;;;;;;;;;;5047005;28;20756;-78
2023/06/01 03:47:11;;;;;;;4.85;3.53;;;;;;;;;;5054199;28;20198;-78
2023/06/01 03:49:38;;;;;;;5.72;3.30;;;;;;;;;;5045505;28;20198;-79
2023/06/01 03:52:07;;;;;;;4.00;3.60;;;;;;;;;;5047495;28;20219;-78
2023/06/01 03:54:35;;;;;;;4.82;4.15;;;;;;;;;;5054265;28;20604;-78
2023/06/01 03:57:02;;;;;;;3.58;3.28;;;;;;;;;;5053081;28;20211;-78
2023/06/01 03:59:29;;;;;;;4.75;4.05;;;;;;;;;;5052325;28;20206;-78
2023/06/01 04:01:57;;;;;;;6.00;4.25;;;;;;;;;;5048767;28;20345;-78
2023/06/01 04:04:29;;;;;;;4.97;4.47;;;;;;;;;;5045705;28;20233;-78
2023/06/01 04:07:00;;;;;;;7.50;3.95;;;;;;;;;;5054231;28;20193;-78
2023/06/01 04:09:28;;;;;;;5.43;4.20;;;;;;;;;;5052676;28;20674;-78
2023/06/01 04:11:56;;;;;;;5.28;4.10;;;;;;;;;;5054145;28;20221;-78
2023/06/01 04:14:23;;;;;;;7.38;6.03;;;;;;;;;;5051207;28;20644;-80
2023/06/01 04:16:50;;;;;;;5.53;4.10;;;;;;;;;;5048954;28;20663;-78
2023/06/01 04:19:18;;;;;;;5.57;4.20;;;;;;;;;;5050546;28;20193;-80
2023/06/01 04:21:47;;;;;;;4.47;4.07;;;;;;;;;;5052203;28;20312;-78
2023/06/01 04:24:14;;;;;;;5.13;4.03;;;;;;;;;;5054493;28;20194;-77
2023/06/01 04:26:42;;;;;;;3.20;3.00;;;;;;;;;;5054105;28;20208;-78
2023/06/01 04:29:11;;;;;;;5.45;3.88;;;;;;;;;;5050516;28;20197;-78
2023/06/01 04:31:39;;;;;;;4.20;3.60;;;;;;;;;;5049154;28;20597;-77
2023/06/01 04:34:07;;;;;;;4.30;3.42;;;;;;;;;;5037699;28;20194;-78
2023/06/01 04:36:38;;;;;;;5.28;3.85;;;;;;;;;;5053768;28;20206;-78
2023/06/01 04:39:07;;;;;;;3.65;3.35;;;;;;;;;;5042367;28;20234;-78
2023/06/01 04:41:35;;;;;;;4.55;3.85;;;;;;;;;;5053527;28;20276;-79
2023/06/01 04:44:05;;;;;;;4.30;3.67;;;;;;;;;;5044711;28;20575;-78
2023/06/01 04:46:35;;;;;;;4.60;3.65;;;;;;;;;;5051707;28;20209;-79
2023/06/01 04:49:02;;;;;;;5.63;4.18;;;;;;;;;;5052564;28;20197;-77
2023/06/01 04:51:30;;;;;;;4.88;4.10;;;;;;;;;;5054474;28;20255;-77
2023/06/01 04:53:58;;;;;;;3.55;3.15;;;;;;;;;;5052344;28;20209;-77
2023/06/01 04:56:27;;;;;;;4.03;3.47;;;;;;;;;;5053358;28;20198;-77
2023/06/01 04:58:55;;;;;;;3.80;3.08;;;;;;;;;;5051791;28;20198;-77
2023/06/01 05:01:24;;;;;;;3.60;3.30;;;;;;;;;;5052544;28;20312;-79
2023/06/01 05:03:54;;;;;;;5.55;3.63;;;;;;;;;;5052729;28;20285;-78
2023/06/01 05:06:22;;;;;;;4.15;3.75;;;;;;;;;;5052682;28;20607;-78
2023/06/01 05:08:49;;;;;;;5.47;4.97;;;;;;;;;;5050013;28;20220;-77
2023/06/01 05:11:17;;;;;;;5.68;5.18;;;;;;;;;;5053112;28;20224;-80
2023/06/01 05:13:46;;;;;;;4.57;4.18;;;;;;;;;;5053121;28;20208;-79
2023/06/01 05:16:13;;;;;;;4.82;4.43;;;;;;;;;;5052668;28;20686;-80
2023/06/01 05:18:40;;;;;;;4.95;4.47;;;;;;;;;;5052194;28;20198;-78
2023/06/01 05:21:08;;;;;;;10.10;4.75;;;;;;;;;;5053781;28;20228;-78
2023/06/01 05:23:35;;;;;;;6.07;4.78;;;;;;;;;;5052281;28;20202;-79
2023/06/01 05:26:03;;;;;;;5.28;4.78;;;;;;;;;;5052216;28;20192;-79
2023/06/01 05:28:31;;;;;;;5.03;4.55;;;;;;;;;;5050358;28;20198;-79
2023/06/01 05:31:00;;;;;;;7.00;4.93;;;;;;;;;;5050721;28;20224;-77
2023/06/01 05:33:28;;;;;;;5.28;4.78;;;;;;;;;;5046738;28;20225;-78
2023/06/01 05:35:55;;;;;;;4.43;3.67;;;;;;;;;;5051067;28;20198;-78
2023/06/01 05:38:23;;;;;;;4.57;4.15;;;;;;;;;;5050516;28;20201;-79
2023/06/01 05:40:50;;;;;;;4.70;4.30;;;;;;;;;;5051776;28;20245;-78
2023/06/01 05:43:17;;;;;;;4.82;4.43;;;;;;;;;;5045767;28;20289;-78
2023/06/01 05:45:45;;;;;;;4.72;4.32;;;;;;;;;;5050351;28;20255;-78
2023/06/01 05:48:14;;;;;;;6.03;4.45;;;;;;;;;;5051222;28;20675;-77
2023/06/01 05:50:42;;;;;;;4.18;3.78;;;;;;;;;;5048353;28;20251;-78
2023/06/01 05:53:10;;;;;;;6.05;4.18;;;;;;;;;;5050283;28;20713;-77
2023/06/01 05:55:37;;;;;;;5.90;5.30;;;;;;;;;;5051046;28;20293;-78
2023/06/01 05:58:05;;;;;;;5.63;5.13;;;;;;;;;;5049965;28;20197;-78
2023/06/01 06:00:34;;;;;;;6.03;5.43;;;;;;;;;;5051376;28;20584;-77
2023/06/01 06:03:03;;;;;;;6.20;5.55;;;;;;;;;;5051869;28;20581;-77
2023/06/01 06:05:32;;;;;;;6.38;5.63;;;;;;;;;;5051741;28;20224;-78
2023/06/01 06:08:00;;;;;;;6.50;5.82;;;;;;;;;;5046821;28;20728;-78
2023/06/01 06:10:28;;;;;;;5.70;5.18;;;;;;;;;;5051659;28;20205;-77
2023/06/01 06:12:56;;;;;;;5.80;5.30;;;;;;;;;;5072925;22;20221;-80
2023/06/01 06:15:23;;;;;;;5.50;5.00;;;;;;;;;;5076420;28;20189;-80
2023/06/01 06:17:51;;;;;;;6.70;5.75;;;;;;;;;;5075873;28;20207;-81
2023/06/01 06:20:21;;;;;;;6.30;5.70;;;;;;;;;;5076869;28;20223;-82
2023/06/01 06:22:52;;;;;;;6.28;5.68;;;;;;;;;;5062152;28;20218;-80
2023/06/01 06:25:20;;;;;;;5.00;4.60;;;;;;;;;;5058541;28;20583;-80
2023/06/01 06:27:48;;;;;;;5.80;5.25;;;;;;;;;;5049736;28;20236;-81
2023/06/01 06:30:15;;;;;;;8.18;7.38;;;;;;;;;;5054376;28;20593;-80
2023/06/01 06:32:43;;;;;;;6.57;5.97;;;;;;;;;;5051360;28;20295;-81
2023/06/01 06:35:12;;;;;;;6.60;5.90;;;;;;;;;;5052559;28;20277;-81
2023/06/01 06:37:41;;;;;;;6.72;6.03;;;;;;;;;;5051247;28;20194;-80
2023/06/01 06:40:11;;;;;;;6.53;5.97;;;;;;;;;;5044294;28;20673;-80
2023/06/01 06:42:39;;;;;;;7.78;6.97;;;;;;;;;;5055000;28;20209;-80
2023/06/01 06:45:08;;;;;;;7.13;6.00;;;;;;;;;;5055019;28;20685;-80
2023/06/01 06:47:36;;;;;;;6.28;5.68;;;;;;;;;;5056691;28;20202;-79
2023/06/01 06:50:03;;;;;;;6.65;5.97;;;;;;;;;;5053522;28;20204;-78
2023/06/01 06:52:31;;;;;;;8.00;7.05;;;;;;;;;;5057186;28;20232;-78
2023/06/01 06:54:58;;;;;;;9.07;7.03;;;;;;;;;;5061803;28;20665;-80
2023/06/01 06:57:27;;;;;;;7.60;6.90;;;;;;;;;;5056997;28;20197;-81
2023/06/01 06:59:55;;;;;;;7.55;6.78;;;;;;;;;;5072074;28;20236;-79
2023/06/01 07:02:27;;;;;;;7.32;6.63;;;;;;;;;;5075774;28;20243;-79
2023/06/01 07:04:54;;;;;;;7.43;6.72;;;;;;;;;;5056859;28;20221;-81
2023/06/01 07:07:22;;;;;;;7.85;7.07;;;;;;;;;;5056356;28;20209;-79
2023/06/01 07:09:49;;;;;;;8.27;7.00;;;;;;;;;;5056586;28;20718;-79
2023/06/01 07:12:20;;;;;;;7.93;6.75;;;;;;;;;;5055034;28;20229;-83
2023/06/01 07:14:49;;;;;;;9.80;7.20;;;;;;;;;;5055153;28;20284;-79
2023/06/01 07:17:16;;;;;;;8.20;6.88;;;;;;;;;;5056906;28;20197;-83
2023/06/01 07:19:45;;;;;;;8.43;7.28;;;;;;;;;;5055785;28;20190;-78
2023/06/01 07:22:13;;;;;;;7.25;6.55;;;;;;;;;;5055964;28;20226;-78
2023/06/01 07:24:41;;;;;;;8.52;7.25;;;;;;;;;;5051529;28;20754;-77
2023/06/01 07:27:09;;;;;;;8.93;7.47;;;;;;;;;;5063624;28;20193;-79
2023/06/01 07:29:36;;;;;;;7.97;7.28;;;;;;;;;;5074480;28;20193;-78
2023/06/01 07:32:07;;;;;;;7.82;7.00;;;;;;;;;;5065140;28;20307;-79
2023/06/01 07:34:34;;;;;;;8.48;7.18;;;;;;;;;;5055317;28;20239;-78
2023/06/01 07:37:03;;;;;;;8.50;7.63;;;;;;;;;;5060113;28;20635;-79
2023/06/01 07:39:31;;;;;;;10.55;8.45;;;;;;;;;;5055302;28;20198;-78
2023/06/01 07:42:04;;;;;;;8.65;6.75;;;;;;;;;;5050894;28;20241;-79
2023/06/01 07:44:33;;;;;;;10.13;7.90;;;;;;;;;;5060224;28;20745;-80
2023/06/01 07:47:01;;;;;;;7.47;6.55;;;;;;;;;;5056669;28;20229;-81
2023/06/01 07:49:29;;;;;;;6.97;6.28;;;;;;;;;;5056229;28;20293;-80
2023/06/01 07:51:58;;;;;;;8.57;7.57;;;;;;;;;;5054622;28;20760;-80
2023/06/01 07:54:26;;;;;;;7.13;6.43;;;;;;;;;;5054458;28;20287;-80
2023/06/01 07:56:53;;;;;;;13.65;11.65;;;;;;;;;;5055054;28;20198;-79
2023/06/01 07:59:39;;;;;;;8.77;7.88;;;;;;;;;;5055952;28;20197;-79
2023/06/01 08:02:07;;;;;;;7.60;6.18;;;;;;;;;;5057730;28;20217;-80
2023/06/01 08:04:37;;;;;;;6.93;6.22;;;;;;;;;;5057462;28;20266;-78
2023/06/01 08:07:07;;;;;;;6.90;5.10;;;;;;;;;;5055650;28;20201;-79
2023/06/01 08:09:37;;;;;;;6.43;5.40;;;;;;;;;;5056931;28;20206;-79
2023/06/01 08:12:08;;;;;;;8.18;6.25;;;;;;;;;;5053895;28;20253;-79
2023/06/01 08:14:37;;;;;;;6.55;4.97;;;;;;;;;;5056761;28;20647;-80
2023/06/01 08:17:11;;;;;;;6.28;5.57;;;;;;;;;;5051864;28;20197;-80
2023/06/01 08:19:42;;;;;;;5.30;4.80;;;;;;;;;;5059100;28;20193;-80
2023/06/01 08:22:11;;;;;;;6.10;5.50;;;;;;;;;;5061502;28;20730;-79
2023/06/01 08:24:45;;;;;;;6.05;5.53;;;;;;;;;;5063979;28;20280;-81
2023/06/01 08:27:20;;;;;;;6.82;6.03;;;;;;;;;;5051830;28;20560;-80
2023/06/01 08:29:48;;;;;;;5.13;4.63;;;;;;;;;;5052436;28;20201;-78
2023/06/01 08:32:16;;;;;;;6.30;5.47;;;;;;;;;;5057513;28;20217;-79
2023/06/01 08:34:47;;;;;;;5.85;5.35;;;;;;;;;;5059080;28;20217;-79
2023/06/01 08:37:15;;;;;;;6.68;5.82;;;;;;;;;;5056277;28;20194;-76
2023/06/01 08:39:48;;;;;;;7.07;6.10;;;;;;;;;;5055384;28;20630;-81
2023/06/01 08:42:26;;;;;;;5.72;5.13;;;;;;;;;;5060205;28;20218;-81
2023/06/01 08:44:56;;;;;;;6.80;6.10;;;;;;;;;;5062012;28;20244;-81
2023/06/01 08:47:26;;;;;;;5.50;5.00;;;;;;;;;;5063931;28;20205;-81
2023/06/01 08:49:55;;;;;;;7.70;6.15;;;;;;;;;;5064544;28;20267;-80
2023/06/01 08:52:24;;;;;;;7.25;5.97;;;;;;;;;;5056321;28;20214;-80
2023/06/01 08:54:52;;;;;;;7.55;5.60;;;;;;;;;;5060136;28;20309;-80
2023/06/01 08:57:20;;;;;;;6.18;5.57;;;;;;;;;;5067289;28;20219;-81
2023/06/01 08:59:48;;;;;;;7.20;5.20;;;;;;;;;;5066114;28;20228;-80
2023/06/01 09:02:16;;;;;;;6.57;5.60;;;;;;;;;;5055220;28;20217;-80
2023/06/01 09:04:44;;;;;;;5.82;5.22;;;;;;;;;;5066258;28;20893;-81
2023/06/01 09:07:14;;;;;;;6.00;5.40;;;;;;;;;;5062695;28;20575;-80
2023/06/01 09:09:41;;;;;;;5.65;5.10;;;;;;;;;;5057493;28;20201;-78
2023/06/01 09:12:25;;;;;;;5.68;5.15;;;;;;;;;;5059693;28;20222;-79
2023/06/01 09:15:07;;;;;;;5.72;4.40;;;;;;;;;;5048108;28;20226;-80
2023/06/01 09:17:35;;;;;;;6.40;5.63;;;;;;;;;;5053137;28;20213;-79
2023/06/01 09:20:04;;;;;;;5.70;4.88;;;;;;;;;;5047542;28;20201;-79
2023/06/01 09:22:47;;;;;;;6.97;5.22;;;;;;;;;;5063081;28;20216;-78
2023/06/01 09:25:16;;;;;;;6.45;5.28;;;;;;;;;;5051987;28;20203;-80
2023/06/01 09:27:47;;;;;;;6.05;5.50;;;;;;;;;;5060772;28;20288;-80
2023/06/01 09:30:16;;;;;;;6.43;5.35;;;;;;;;;;5044705;28;20641;-78
2023/06/01 09:32:50;;;;;;;9.07;6.35;;;;;;;;;;5048279;28;20217;-78
2023/06/01 09:35:18;;;;;;;6.53;5.93;;;;;;;;;;5045474;28;20232;-79
2023/06/01 09:38:03;;;;;;;7.05;5.05;;;;;;;;;;5042886;28;20281;-79
2023/06/01 09:40:31;;;;;;;5.07;4.57;;;;;;;;;;5048030;28;20292;-80
2023/06/01 09:42:58;;;;;;;5.13;4.63;;;;;;;;;;5060718;28;20228;-79
2023/06/01 09:45:37;;;;;;;5.30;4.60;;;;;;;;;;5054864;28;20284;-79
2023/06/01 09:48:22;;;;;;;9.07;5.85;;;;;;;;;;5065294;28;20232;-78
2023/06/01 09:50:50;;;;;;;7.75;5.70;;;;;;;;;;5049598;28;20239;-79
2023/06/01 09:53:19;;;;;;;9.38;7.00;;;;;;;;;;5053607;28;20221;-78
2023/06/01 09:56:06;;;;;;;6.25;5.70;;;;;;;;;;5060221;28;20220;-79
2023/06/01 09:58:40;;;;;;;11.55;6.03;;;;;;;;;;5050870;28;20197;-78
2023/06/01 10:01:15;;;;;;;8.70;5.63;;;;;;;;;;5056188;28;20201;-79
2023/06/01 10:03:44;;;;;;;7.60;5.78;;;;;;;;;;5047627;28;20262;-79
2023/06/01 10:06:13;;;;;;;7.32;5.90;;;;;;;;;;5062249;28;20291;-79
2023/06/01 10:08:43;;;;;;;7.28;5.75;;;;;;;;;;5059100;28;20667;-80
2023/06/01 10:11:10;;;;;;;6.80;6.10;;;;;;;;;;5057871;28;20198;-77
2023/06/01 10:13:38;;;;;;;6.88;6.03;;;;;;;;;;5061105;28;20297;-85
2023/06/01 10:16:06;;;;;;;5.90;5.40;;;;;;;;;;5064611;28;20300;-81
2023/06/01 10:18:34;;;;;;;7.25;5.90;;;;;;;;;;5053323;28;20205;-78
2023/06/01 10:21:06;;;;;;;7.50;5.55;;;;;;;;;;5052138;28;20202;-80
2023/06/01 10:23:33;;;;;;;8.77;6.28;;;;;;;;;;5050299;28;20201;-81
2023/06/01 10:26:08;;;;;;;5.97;4.97;;;;;;;;;;5044106;28;20654;-79
2023/06/01 10:28:36;;;;;;;7.43;4.88;;;;;;;;;;5054462;28;20200;-80
2023/06/01 10:31:35;;;;;;;5.43;4.78;;;;;;;;;;5071253;28;20192;-80
2023/06/01 10:34:03;;;;;;;6.85;4.78;;;;;;;;;;5061216;28;20198;-79
2023/06/01 10:37:11;;;;;;;8.55;6.20;;;;;;;;;;5064384;28;20220;-81
2023/06/01 10:39:39;;;;;;;5.53;4.70;;;;;;;;;;5058859;28;20513;-79
2023/06/01 10:42:40;;;;;;;5.70;4.78;;;;;;;;;;5058244;28;20248;-78
2023/06/01 10:45:38;;;;;;;6.88;5.38;;;;;;;;;;5055004;28;20194;-81
2023/06/01 10:48:06;;;;;;;13.05;7.05;;;;;;;;;;5069275;28;20198;-78
2023/06/01 10:50:36;;;;;;;6.75;4.63;;;;;;;;;;5065038;28;20198;-77
2023/06/01 10:53:27;;;;;;;5.25;4.75;;;;;;;;;;5064482;28;20649;-78
2023/06/01 10:56:23;;;;;;;6.00;5.28;;;;;;;;;;5046971;28;20226;-77
2023/06/01 10:59:13;;;;;;;6.70;4.97;;;;;;;;;;5061747;28;20197;-78
2023/06/01 11:01:42;;;;;;;4.50;4.10;;;;;;;;;;5066439;28;20757;-81
2023/06/01 11:04:10;;;;;;;6.63;5.15;;;;;;;;;;5060507;28;20205;-80
2023/06/01 11:06:40;;;;;;;5.45;4.60;;;;;;;;;;5064740;28;20661;-80
2023/06/01 11:09:10;;;;;;;9.20;5.70;;;;;;;;;;5071620;28;20229;-81
2023/06/01 11:12:02;;;;;;;7.03;5.70;;;;;;;;;;5064376;28;20237;-80
2023/06/01 11:14:33;;;;;;;6.50;4.72;;;;;;;;;;5064527;28;20224;-81
2023/06/01 11:17:30;;;;;;;6.82;5.18;;;;;;;;;;5063842;28;20233;-81
2023/06/01 11:20:00;;;;;;;10.95;6.45;;;;;;;;;;5069348;28;20267;-82
2023/06/01 11:22:35;;;;;;;7.95;6.53;;;;;;;;;;5078721;28;20247;-80
2023/06/01 11:25:07;;;;;;;6.72;5.95;;;;;;;;;;5067691;28;20193;-82
2023/06/01 11:27:36;;;;;;;5.60;5.07;;;;;;;;;;5050714;28;20273;-83
2023/06/01 11:30:08;;;;;;;6.57;5.40;;;;;;;;;;5056470;28;20233;-81
2023/06/01 11:32:40;;;;;;;7.65;6.03;;;;;;;;;;5052868;28;20225;-82
2023/06/01 11:35:22;;;;;;;8.20;5.68;;;;;;;;;;5077538;28;20193;-82
2023/06/01 11:37:56;;;;;;;7.05;5.43;;;;;;;;;;5047462;28;20247;-83
2023/06/01 11:40:24;;;;;;;6.10;4.80;;;;;;;;;;5063270;28;20193;-81
2023/06/01 11:42:52;;;;;;;6.53;5.18;;;;;;;;;;5058809;28;20260;-82
2023/06/01 11:45:22;;;;;;;5.70;5.03;;;;;;;;;;5062523;28;20552;-81
2023/06/01 11:47:49;;;;;;;8.50;5.30;;;;;;;;;;5064787;28;20261;-83
2023/06/01 11:50:26;;;;;;;8.82;5.90;;;;;;;;;;5058071;28;20233;-81
2023/06/01 11:52:55;;;;;;;4.65;4.22;;;;;;;;;;5058519;28;20221;-84
2023/06/01 11:55:23;;;;;;;5.55;5.05;;;;;;;;;;5063688;28;20270;-82
2023/06/01 11:57:50;;;;;;;8.60;5.57;;;;;;;;;;5068002;28;20197;-83
2023/06/01 12:00:20;;;;;;;6.25;5.45;;;;;;;;;;5064189;28;20285;-84
2023/06/01 12:02:48;;;;;;;7.05;5.68;;;;;;;;;;5058827;28;20229;-83
2023/06/01 12:05:15;;;;;;;7.28;5.68;;;;;;;;;;5057084;28;20220;-84
2023/06/01 12:07:47;;;;;;;8.27;5.10;;;;;;;;;;5056647;28;20201;-82
2023/06/01 12:10:16;;;;;;;6.13;5.50;;;;;;;;;;5061677;28;20190;-82
2023/06/01 12:12:44;;;;;;;6.97;5.45;;;;;;;;;;5068084;22;20236;-87
2023/06/01 12:15:13;;;;;;;6.28;5.68;;;;;;;;;;5053278;28;20240;-83
2023/06/01 12:17:53;;;;;;;7.30;5.65;;;;;;;;;;5051279;28;20660;-86
2023/06/01 12:20:30;;;;;;;7.13;6.30;;;;;;;;;;5040029;28;20285;-85
2023/06/01 12:22:59;;;;;;;7.38;6.40;;;;;;;;;;5057652;28;20277;-84
2023/06/01 12:25:27;;;;;;;5.40;4.78;;;;;;;;;;5057770;28;20194;-83
2023/06/01 12:28:10;;;;;;;7.07;5.75;;;;;;;;;;5048185;28;20261;-84
2023/06/01 12:30:37;;;;;;;5.43;4.93;;;;;;;;;;5057903;28;20210;-84
2023/06/01 12:33:06;;;;;;;7.40;6.75;;;;;;;;;;5046116;28;20645;-83
2023/06/01 12:35:34;;;;;;;8.38;6.60;;;;;;;;;;5049899;28;20209;-84
2023/06/01 12:38:06;;;;;;;8.10;6.20;;;;;;;;;;5052095;28;20285;-84
2023/06/01 12:40:34;;;;;;;6.90;6.13;;;;;;;;;;5059118;28;20198;-86
2023/06/01 12:43:02;;;;;;;6.93;5.50;;;;;;;;;;5058843;28;20236;-86
2023/06/01 12:45:37;;;;;;;7.47;6.10;;;;;;;;;;5059145;28;20228;-85
2023/06/01 12:48:07;;;;;;;7.78;6.97;;;;;;;;;;5051886;28;20580;-85
2023/06/01 12:50:34;;;;;;;7.60;6.82;;;;;;;;;;5040825;28;20206;-85
2023/06/01 12:53:03;;;;;;;6.80;5.40;;;;;;;;;;5042317;28;20293;-86
2023/06/01 12:55:30;;;;;;;6.72;6.05;;;;;;;;;;5041902;28;20309;-85
2023/06/01 12:57:58;;;;;;;7.53;6.82;;;;;;;;;;5049006;28;20292;-85
2023/06/01 13:00:26;;;;;;;7.88;6.18;;;;;;;;;;5066334;28;20198;-85
2023/06/01 13:02:54;;;;;;;8.70;7.38;;;;;;;;;;5067828;28;20225;-87
2023/06/01 13:05:23;;;;;;;7.78;6.75;;;;;;;;;;5064536;28;20209;-84
2023/06/01 13:07:51;;;;;;;7.47;6.72;;;;;;;;;;5062795;28;20221;-86
2023/06/01 13:10:18;;;;;;;7.03;6.32;;;;;;;;;;5049937;28;20240;-84
2023/06/01 13:12:46;;;;;;;7.47;6.72;;;;;;;;;;5056986;28;20292;-86
2023/06/01 13:15:13;;;;;;;8.38;6.90;;;;;;;;;;5061218;28;20225;-86
2023/06/01 13:17:42;;;;;;;7.45;6.75;;;;;;;;;;5060491;28;20217;-87
2023/06/01 13:20:11;;;;;;;9.35;7.75;;;;;;;;;;5061347;28;20247;-86
2023/06/01 13:22:40;;;;;;;7.13;6.53;;;;;;;;;;5063520;28;20608;-84
2023/06/01 13:25:09;;;;;;;8.88;8.02;;;;;;;;;;5063462;28;20222;-84
2023/06/01 13:27:44;;;;;;;7.70;6.90;;;;;;;;;;5063613;28;20269;-87
2023/06/01 13:30:13;;;;;;;7.55;6.85;;;;;;;;;;5066441;28;20197;-83
2023/06/01 13:32:40;;;;;;;6.68;5.95;;;;;;;;;;5064055;28;20246;-85
2023/06/01 13:35:11;;;;;;;9.57;7.63;;;;;;;;;;5061748;28;20218;-85
2023/06/01 13:37:40;;;;;;;8.32;7.25;;;;;;;;;;5064440;28;20217;-83
2023/06/01 13:40:09;;;;;;;7.97;6.80;;;;;;;;;;5064867;28;20204;-83
2023/06/01 13:42:37;;;;;;;8.88;6.78;;;;;;;;;;5062029;28;20201;-83
2023/06/01 13:45:05;;;;;;;8.80;7.03;;;;;;;;;;5064733;28;20253;-87
2023/06/01 13:47:33;;;;;;;11.18;7.50;;;;;;;;;;5062706;28;20221;-85
2023/06/01 13:50:00;;;;;;;7.90;7.10;;;;;;;;;;5060225;28;20202;-85
2023/06/01 13:52:27;;;;;;;7.00;6.30;;;;;;;;;;5060585;28;20199;-84
2023/06/01 13:54:57;;;;;;;8.48;7.38;;;;;;;;;;5060188;28;20248;-88
2023/06/01 13:57:24;;;;;;;6.82;5.63;;;;;;;;;;5058251;28;20243;-85
2023/06/01 13:59:52;;;;;;;7.40;6.80;;;;;;;;;;5058992;28;20712;-86
2023/06/01 14:02:20;;;;;;;9.15;7.07;;;;;;;;;;5057697;28;20292;-85
2023/06/01 14:04:48;;;;;;;8.60;6.65;;;;;;;;;;5058612;28;20272;-84
2023/06/01 14:07:15;;;;;;;7.72;6.05;;;;;;;;;;5059406;28;20194;-85
2023/06/01 14:09:43;;;;;;;7.78;6.10;;;;;;;;;;5059228;28;20619;-85
2023/06/01 14:12:12;;;;;;;6.68;6.05;;;;;;;;;;5059173;28;20231;-85
2023/06/01 14:14:40;;;;;;;6.97;6.35;;;;;;;;;;5059111;28;20336;-86
2023/06/01 14:17:08;;;;;;;6.15;5.57;;;;;;;;;;5060024;28;20244;-84
2023/06/01 14:19:35;;;;;;;7.28;6.35;;;;;;;;;;5060165;28;20201;-84
2023/06/01 14:22:03;;;;;;;9.95;6.70;;;;;;;;;;5059723;28;20258;-86
2023/06/01 14:24:30;;;;;;;7.60;6.40;;;;;;;;;;5059703;28;20241;-86
2023/06/01 14:26:58;;;;;;;7.50;5.55;;;;;;;;;;5054723;28;20204;-85
2023/06/01 14:29:27;;;;;;;6.47;5.75;;;;;;;;;;5062611;28;20173;-84
2023/06/01 14:31:54;;;;;;;6.65;5.13;;;;;;;;;;5061854;28;20221;-88
2023/06/01 14:34:22;;;;;;;7.38;5.88;;;;;;;;;;5062144;28;20248;-86
2023/06/01 14:36:49;;;;;;;7.47;6.22;;;;;;;;;;5060333;28;20241;-87
2023/06/01 14:39:17;;;;;;;5.88;5.10;;;;;;;;;;5061718;28;20229;-87
2023/06/01 14:41:44;;;;;;;7.82;6.80;;;;;;;;;;5061010;28;20221;-86
2023/06/01 14:44:12;;;;;;;6.88;6.28;;;;;;;;;;5061579;28;20768;-85
2023/06/01 14:46:41;;;;;;;5.68;4.63;;;;;;;;;;5062178;28;20240;-86
2023/06/01 14:49:09;;;;;;;6.93;6.03;;;;;;;;;;5060609;28;20200;-85
2023/06/01 14:51:36;;;;;;;8.13;5.45;;;;;;;;;;5061839;28;20225;-85
2023/06/01 14:54:04;;;;;;;6.55;5.03;;;;;;;;;;5061484;28;20230;-86
2023/06/01 14:56:32;;;;;;;7.80;5.65;;;;;;;;;;5063768;28;20194;-86
2023/06/01 14:58:59;;;;;;;5.97;5.38;;;;;;;;;;5063746;28;20292;-87
2023/06/01 15:01:27;;;;;;;8.18;5.68;;;;;;;;;;5063070;28;20197;-85
2023/06/01 15:03:56;;;;;;;6.20;5.63;;;;;;;;;;5063643;28;20238;-86